Time;durP1;ratioP1;P1;durP2;ratioP2;P2;SDS_P1;SDS_P2;PMS_P1;PMS_P2;Temp;Humidity;BMP_temperature;BMP_pressure;BME280_temperature;BME280_humidity;BME280_pressure;Samples;Min_cycle;Max_cycle;Signal;HPM_P1;HPM_P2
2023/09/22 00:01:45;;;;;;;;;;;16.90;99.90;;;;;;4921566;28;19927;-67
2023/09/22 00:04:11;;;;;;;;;;;16.90;99.90;;;;;;4921646;28;19929;-66
2023/09/22 00:06:36;;;;;;;;;;;16.80;99.90;;;;;;4919259;28;20284;-66
2023/09/22 00:09:02;;;;;;;;;;;16.80;99.90;;;;;;4922947;28;20592;-66
2023/09/22 00:11:27;;;;;;;;;;;16.70;99.90;;;;;;4920274;28;19914;-68
2023/09/22 00:13:53;;;;;;;;;;;16.80;99.90;;;;;;4917427;28;21029;-68
2023/09/22 00:16:18;;;;;;;;;;;16.70;99.90;;;;;;4917553;28;19958;-67
2023/09/22 00:18:44;;;;;;;;;;;16.70;99.90;;;;;;4916469;28;20734;-67
2023/09/22 00:21:09;;;;;;;;;;;16.70;99.90;;;;;;4918880;28;19922;-68
2023/09/22 00:23:35;;;;;;;;;;;16.60;99.90;;;;;;4921585;28;19962;-68
2023/09/22 00:26:02;;;;;;;;;;;16.50;99.90;;;;;;4918028;28;20459;-68
2023/09/22 00:28:27;;;;;;;;;;;16.40;99.90;;;;;;4919752;28;20272;-68
2023/09/22 00:30:53;;;;;;;;;;;16.30;99.90;;;;;;4919338;28;19922;-68
2023/09/22 00:33:18;;;;;;;;;;;16.30;99.90;;;;;;4911604;28;19918;-68
2023/09/22 00:35:44;;;;;;;;;;;16.30;99.90;;;;;;4919673;28;19918;-67
2023/09/22 00:38:10;;;;;;;;;;;16.30;99.90;;;;;;4922149;28;19918;-68
2023/09/22 00:40:36;;;;;;;;;;;16.30;99.90;;;;;;4922869;28;20383;-68
2023/09/22 00:43:09;;;;;;;;;;;16.40;99.90;;;;;;4925474;28;19919;-67
2023/09/22 00:45:42;;;;;;;;;;;16.40;99.90;;;;;;4927539;28;19927;-67
2023/09/22 00:48:09;;;;;;;;;;;16.40;99.90;;;;;;4923126;28;19961;-68
2023/09/22 00:50:35;;;;;;;;;;;16.30;99.90;;;;;;4921541;28;19926;-68
2023/09/22 00:53:01;;;;;;;;;;;16.20;99.90;;;;;;4922334;28;19970;-67
2023/09/22 00:55:27;;;;;;;;;;;16.20;99.90;;;;;;4928780;28;20016;-68
2023/09/22 00:57:53;;;;;;;;;;;16.20;99.90;;;;;;4920874;28;19927;-68
2023/09/22 01:00:19;;;;;;;;;;;16.20;99.90;;;;;;4918137;28;19911;-68
2023/09/22 01:02:44;;;;;;;;;;;16.30;99.90;;;;;;4923659;28;20519;-68
2023/09/22 01:05:10;;;;;;;;;;;16.30;99.90;;;;;;4927175;28;19977;-68
2023/09/22 01:07:37;;;;;;;;;;;16.30;99.90;;;;;;4931562;28;19964;-66
2023/09/22 01:10:11;;;;;;;;;;;16.20;99.90;;;;;;4927163;28;20299;-66
2023/09/22 01:12:37;;;;;;;;;;;16.30;99.90;;;;;;4923056;28;19910;-66
2023/09/22 01:15:03;;;;;;;;;;;16.20;99.90;;;;;;4926760;28;19929;-66
2023/09/22 01:17:28;;;;;;;;;;;16.20;99.90;;;;;;4926578;28;20395;-66
2023/09/22 01:19:54;;;;;;;;;;;16.20;99.90;;;;;;4930337;28;19929;-66
2023/09/22 01:22:20;;;;;;;;;;;16.10;99.90;;;;;;4928982;28;19922;-67
2023/09/22 01:24:45;;;;;;;;;;;16.10;99.90;;;;;;4924719;28;19914;-66
2023/09/22 01:27:11;;;;;;;;;;;16.00;99.90;;;;;;4921976;28;20420;-66
2023/09/22 01:29:36;;;;;;;;;;;16.00;99.90;;;;;;4925447;28;20564;-66
2023/09/22 01:32:02;;;;;;;;;;;15.90;99.90;;;;;;4924347;28;19963;-66
2023/09/22 01:34:28;;;;;;;;;;;15.90;99.90;;;;;;4928524;28;19921;-66
2023/09/22 01:36:53;;;;;;;;;;;15.90;99.90;;;;;;4923616;28;19921;-67
2023/09/22 01:39:19;;;;;;;;;;;15.90;99.90;;;;;;4923811;28;19915;-67
2023/09/22 01:41:44;;;;;;;;;;;15.80;99.90;;;;;;4923479;28;20709;-65
2023/09/22 01:44:10;;;;;;;;;;;15.80;99.90;;;;;;4922742;28;19914;-66
2023/09/22 01:46:36;;;;;;;;;;;15.70;99.90;;;;;;4928385;28;19914;-69
2023/09/22 01:49:02;;;;;;;;;;;15.80;99.90;;;;;;4923649;28;20435;-68
2023/09/22 01:51:27;;;;;;;;;;;15.80;99.90;;;;;;4928215;28;19942;-68
2023/09/22 01:53:55;;;;;;;;;;;15.80;99.90;;;;;;4929755;28;20101;-66
2023/09/22 01:56:21;;;;;;;;;;;15.80;99.90;;;;;;4926542;28;19919;-69
2023/09/22 01:58:48;;;;;;;;;;;15.70;99.90;;;;;;4929218;28;20735;-68
2023/09/22 02:01:14;;;;;;;;;;;15.60;99.90;;;;;;4928462;28;20008;-67
2023/09/22 02:03:39;;;;;;;;;;;15.60;99.90;;;;;;4925939;28;20446;-65
2023/09/22 02:06:05;;;;;;;;;;;15.60;99.90;;;;;;4913008;28;19918;-67
2023/09/22 02:08:31;;;;;;;;;;;15.60;99.90;;;;;;4925630;28;19954;-65
2023/09/22 02:10:56;;;;;;;;;;;15.60;99.90;;;;;;4924235;28;19918;-65
2023/09/22 02:13:22;;;;;;;;;;;15.60;99.90;;;;;;4930058;28;20658;-65
2023/09/22 02:15:48;;;;;;;;;;;15.70;99.90;;;;;;4921947;28;19925;-67
2023/09/22 02:18:13;;;;;;;;;;;15.70;99.90;;;;;;4922724;28;19929;-64
2023/09/22 02:20:41;;;;;;;;;;;15.70;99.90;;;;;;4924514;28;20034;-65
2023/09/22 02:23:06;;;;;;;;;;;15.70;99.90;;;;;;4913672;28;19934;-65
2023/09/22 02:25:33;;;;;;;;;;;15.70;99.90;;;;;;4920599;28;20016;-64
2023/09/22 02:27:59;;;;;;;;;;;15.70;99.90;;;;;;4924695;28;19914;-65
2023/09/22 02:30:26;;;;;;;;;;;15.80;99.90;;;;;;4928698;28;19919;-65
2023/09/22 02:32:52;;;;;;;;;;;15.80;99.90;;;;;;4921234;28;20316;-65
2023/09/22 02:35:18;;;;;;;;;;;15.90;99.90;;;;;;4923618;28;20077;-64
2023/09/22 02:37:44;;;;;;;;;;;15.90;99.90;;;;;;4926423;28;19919;-66
2023/09/22 02:40:12;;;;;;;;;;;15.90;99.90;;;;;;4926536;28;20025;-66
2023/09/22 02:42:38;;;;;;;;;;;15.90;99.90;;;;;;4923842;28;19933;-66
2023/09/22 02:45:04;;;;;;;;;;;15.90;99.90;;;;;;4925749;28;19910;-66
2023/09/22 02:47:30;;;;;;;;;;;15.90;99.90;;;;;;4925341;28;19914;-66
2023/09/22 02:49:55;;;;;;;;;;;16.00;99.90;;;;;;4927406;28;19973;-66
2023/09/22 02:52:21;;;;;;;;;;;15.90;99.90;;;;;;4926601;28;19919;-66
2023/09/22 02:54:51;;;;;;;;;;;15.90;99.90;;;;;;4920979;28;20496;-66
2023/09/22 02:57:16;;;;;;;;;;;15.80;99.90;;;;;;4928054;28;20363;-66
2023/09/22 02:59:42;;;;;;;;;;;15.80;99.90;;;;;;4927768;28;19917;-66
2023/09/22 03:02:08;;;;;;;;;;;15.80;99.90;;;;;;4927918;28;19922;-66
2023/09/22 03:04:33;;;;;;;;;;;15.70;99.90;;;;;;4926326;28;19937;-65
2023/09/22 03:06:59;;;;;;;;;;;15.70;99.90;;;;;;4929551;28;19914;-67
2023/09/22 03:09:24;;;;;;;;;;;15.70;99.90;;;;;;4924069;28;20357;-66
2023/09/22 03:11:50;;;;;;;;;;;15.80;99.90;;;;;;4923117;28;19918;-66
2023/09/22 03:14:15;;;;;;;;;;;15.80;99.90;;;;;;4922194;28;19969;-66
2023/09/22 03:16:41;;;;;;;;;;;15.80;99.90;;;;;;4926800;28;19921;-67
2023/09/22 03:19:08;;;;;;;;;;;15.80;99.90;;;;;;4917684;28;19920;-66
2023/09/22 03:21:34;;;;;;;;;;;15.90;99.90;;;;;;4925727;28;20413;-66
2023/09/22 03:24:00;;;;;;;;;;;15.90;99.90;;;;;;4908036;29;19961;-66
2023/09/22 03:26:26;;;;;;;;;;;16.00;99.90;;;;;;4928151;28;20009;-66
2023/09/22 03:28:51;;;;;;;;;;;16.00;99.90;;;;;;4925518;28;19918;-66
2023/09/22 03:31:18;;;;;;;;;;;16.00;99.90;;;;;;4920195;28;20041;-66
2023/09/22 03:33:46;;;;;;;;;;;16.00;99.90;;;;;;4922789;28;19925;-68
2023/09/22 03:36:12;;;;;;;;;;;16.10;99.90;;;;;;4921902;28;19915;-66
2023/09/22 03:38:41;;;;;;;;;;;16.10;99.90;;;;;;4905380;28;19918;-66
2023/09/22 03:41:07;;;;;;;;;;;16.10;99.90;;;;;;4920169;28;19927;-66
2023/09/22 03:43:36;;;;;;;;;;;16.10;99.90;;;;;;4924763;28;20521;-65
2023/09/22 03:46:02;;;;;;;;;;;16.10;99.90;;;;;;4905432;28;19914;-66
2023/09/22 03:48:28;;;;;;;;;;;16.10;99.90;;;;;;4922994;28;19974;-66
2023/09/22 03:50:53;;;;;;;;;;;16.10;99.90;;;;;;4927776;28;19918;-66
2023/09/22 03:53:19;;;;;;;;;;;16.10;99.90;;;;;;4925681;28;19990;-66
2023/09/22 03:55:45;;;;;;;;;;;16.00;99.90;;;;;;4922100;28;19921;-66
2023/09/22 03:58:11;;;;;;;;;;;16.00;99.90;;;;;;4925228;28;20380;-66
2023/09/22 04:00:37;;;;;;;;;;;16.00;99.90;;;;;;4921750;28;19946;-66
2023/09/22 04:03:04;;;;;;;;;;;16.00;99.90;;;;;;4918928;28;19926;-65
2023/09/22 04:05:29;;;;;;;;;;;16.00;99.90;;;;;;4924385;28;20246;-66
2023/09/22 04:07:55;;;;;;;;;;;16.00;99.90;;;;;;4924058;28;21379;-67
2023/09/22 04:10:21;;;;;;;;;;;16.00;99.90;;;;;;4915046;28;19922;-66
2023/09/22 04:12:46;;;;;;;;;;;16.00;99.90;;;;;;4916773;28;19972;-65
2023/09/22 04:15:12;;;;;;;;;;;16.00;99.90;;;;;;4920706;28;20273;-65
2023/09/22 04:17:40;;;;;;;;;;;16.10;99.90;;;;;;4928611;28;19925;-65
2023/09/22 04:20:07;;;;;;;;;;;16.10;99.90;;;;;;4923135;28;19922;-65
2023/09/22 04:22:33;;;;;;;;;;;16.10;99.90;;;;;;4920735;28;19927;-65
2023/09/22 04:25:00;;;;;;;;;;;16.10;99.90;;;;;;4926953;28;19910;-66
2023/09/22 04:27:34;;;;;;;;;;;16.10;99.90;;;;;;4928654;28;19918;-65
2023/09/22 04:30:00;;;;;;;;;;;16.00;99.90;;;;;;4926400;28;20020;-67
2023/09/22 04:32:28;;;;;;;;;;;16.00;99.90;;;;;;4931472;28;20015;-66
2023/09/22 04:34:58;;;;;;;;;;;16.00;99.90;;;;;;4924839;28;19990;-66
2023/09/22 04:37:23;;;;;;;;;;;16.00;99.90;;;;;;4922122;28;19961;-67
2023/09/22 04:39:49;;;;;;;;;;;16.00;99.90;;;;;;4922164;28;20290;-66
2023/09/22 04:42:14;;;;;;;;;;;16.10;99.90;;;;;;4917615;28;19966;-66
2023/09/22 04:44:40;;;;;;;;;;;16.10;99.90;;;;;;4924606;28;19940;-67
2023/09/22 04:47:06;;;;;;;;;;;16.10;99.90;;;;;;4921667;28;20429;-67
2023/09/22 04:49:31;;;;;;;;;;;16.20;99.90;;;;;;4944474;28;19979;-67
2023/09/22 04:51:57;;;;;;;;;;;16.10;99.90;;;;;;4927947;28;19936;-66
2023/09/22 04:54:22;;;;;;;;;;;16.10;99.90;;;;;;4918288;28;19942;-68
2023/09/22 04:56:48;;;;;;;;;;;16.10;99.90;;;;;;4921277;28;20075;-67
2023/09/22 04:59:16;;;;;;;;;;;16.10;99.90;;;;;;4926356;28;19931;-67
2023/09/22 05:01:41;;;;;;;;;;;16.10;99.90;;;;;;4927614;28;19965;-66
2023/09/22 05:04:07;;;;;;;;;;;16.20;99.90;;;;;;4928719;28;20282;-67
2023/09/22 05:06:32;;;;;;;;;;;16.30;99.90;;;;;;4927009;28;19984;-67
2023/09/22 05:08:58;;;;;;;;;;;16.30;99.90;;;;;;4929616;28;19988;-67
2023/09/22 05:11:23;;;;;;;;;;;16.40;99.90;;;;;;4924518;28;20266;-66
2023/09/22 05:13:49;;;;;;;;;;;16.50;99.90;;;;;;4926671;28;19965;-66
2023/09/22 05:16:14;;;;;;;;;;;16.50;99.90;;;;;;4922445;28;19962;-66
2023/09/22 05:18:40;;;;;;;;;;;16.60;99.90;;;;;;4925367;28;19982;-67
2023/09/22 05:21:06;;;;;;;;;;;16.60;99.90;;;;;;4912733;28;19965;-67
2023/09/22 05:23:32;;;;;;;;;;;16.70;99.90;;;;;;4900762;29;20757;-66
2023/09/22 05:26:07;;;;;;;;;;;16.80;99.90;;;;;;4903504;29;19953;-67
2023/09/22 05:28:33;;;;;;;;;;;16.80;99.90;;;;;;4901090;29;19945;-66
2023/09/22 05:30:59;;;;;;;;;;;17.00;99.90;;;;;;4908046;29;20013;-67
2023/09/22 05:33:24;;;;;;;;;;;17.10;99.90;;;;;;4906541;29;20585;-66
2023/09/22 05:35:50;;;;;;;;;;;17.10;99.90;;;;;;4905112;29;20050;-65
2023/09/22 05:38:16;;;;;;;;;;;17.30;99.90;;;;;;4907290;29;19911;-66
2023/09/22 05:40:43;;;;;;;;;;;17.40;99.90;;;;;;4912630;29;19968;-66
2023/09/22 05:43:10;;;;;;;;;;;17.50;99.90;;;;;;4906806;29;19927;-66
2023/09/22 05:45:36;;;;;;;;;;;17.60;99.90;;;;;;4907234;29;19917;-66
2023/09/22 05:48:02;;;;;;;;;;;17.80;99.90;;;;;;4909560;29;19966;-66
2023/09/22 05:50:28;;;;;;;;;;;17.90;99.90;;;;;;4907757;29;19999;-66
2023/09/22 05:52:53;;;;;;;;;;;18.10;99.90;;;;;;4910359;29;20037;-66
2023/09/22 05:55:20;;;;;;;;;;;18.20;99.90;;;;;;4907594;29;19939;-66
2023/09/22 05:57:51;;;;;;;;;;;18.40;99.90;;;;;;4909679;29;19928;-66
2023/09/22 06:00:17;;;;;;;;;;;18.60;99.90;;;;;;4908879;29;19936;-66
2023/09/22 06:02:49;;;;;;;;;;;18.70;99.90;;;;;;4908872;29;19962;-67
2023/09/22 06:05:25;;;;;;;;;;;18.90;99.90;;;;;;4906376;29;19945;-67
2023/09/22 06:07:51;;;;;;;;;;;19.00;99.90;;;;;;4908476;29;19926;-66
2023/09/22 06:10:17;;;;;;;;;;;19.10;99.90;;;;;;4909068;29;19982;-66
2023/09/22 06:12:43;;;;;;;;;;;19.10;99.90;;;;;;4907300;29;19919;-66
2023/09/22 06:15:09;;;;;;;;;;;19.10;99.90;;;;;;4912280;29;19961;-67
2023/09/22 06:17:35;;;;;;;;;;;19.00;99.90;;;;;;4906105;29;20022;-66
2023/09/22 06:20:08;;;;;;;;;;;19.00;99.90;;;;;;4912927;28;20395;-66
2023/09/22 06:22:34;;;;;;;;;;;18.90;99.90;;;;;;4933450;28;20438;-68
2023/09/22 06:24:59;;;;;;;;;;;19.00;99.90;;;;;;4933260;28;20022;-67
2023/09/22 06:27:25;;;;;;;;;;;19.00;99.90;;;;;;4928831;28;19927;-68
2023/09/22 06:29:50;;;;;;;;;;;18.90;99.90;;;;;;4928987;28;19937;-68
2023/09/22 06:32:18;;;;;;;;;;;19.00;99.90;;;;;;4931265;28;20320;-68
2023/09/22 06:34:43;;;;;;;;;;;19.00;99.90;;;;;;4930399;28;19952;-68
2023/09/22 06:37:09;;;;;;;;;;;19.00;99.90;;;;;;4935007;28;20401;-68
2023/09/22 06:39:34;;;;;;;;;;;19.00;99.90;;;;;;4933032;28;19978;-67
2023/09/22 06:42:00;;;;;;;;;;;19.10;99.90;;;;;;4933110;28;19950;-68
2023/09/22 06:44:27;;;;;;;;;;;19.10;99.90;;;;;;4932993;28;19996;-67
2023/09/22 06:46:53;;;;;;;;;;;19.30;99.90;;;;;;4930837;28;20006;-67
2023/09/22 06:49:18;;;;;;;;;;;19.40;99.90;;;;;;4925398;28;19918;-66
2023/09/22 06:51:44;;;;;;;;;;;19.60;99.90;;;;;;4927766;28;19914;-66
2023/09/22 06:54:10;;;;;;;;;;;19.80;99.90;;;;;;4931542;28;19914;-66
2023/09/22 06:56:36;;;;;;;;;;;19.90;99.90;;;;;;4934726;28;20041;-66
2023/09/22 06:59:02;;;;;;;;;;;20.00;99.90;;;;;;4925169;28;20767;-66
2023/09/22 07:01:28;;;;;;;;;;;20.20;99.90;;;;;;4918411;28;20464;-66
2023/09/22 07:03:53;;;;;;;;;;;20.30;99.90;;;;;;4921266;28;19937;-66
2023/09/22 07:06:19;;;;;;;;;;;20.50;99.90;;;;;;4927559;28;19937;-66
2023/09/22 07:08:46;;;;;;;;;;;20.60;99.90;;;;;;4921328;28;19952;-66
2023/09/22 07:11:11;;;;;;;;;;;20.70;99.90;;;;;;4916499;28;20039;-66
2023/09/22 07:13:37;;;;;;;;;;;20.90;99.90;;;;;;4914399;28;19936;-66
2023/09/22 07:16:03;;;;;;;;;;;21.00;99.90;;;;;;4920942;28;19933;-67
2023/09/22 07:18:29;;;;;;;;;;;21.10;99.90;;;;;;4916772;28;19937;-66
2023/09/22 07:20:55;;;;;;;;;;;21.10;99.90;;;;;;4918954;28;20390;-67
2023/09/22 07:23:21;;;;;;;;;;;21.30;99.90;;;;;;4926071;28;20025;-66
2023/09/22 07:26:03;;;;;;;;;;;21.40;99.90;;;;;;4921242;28;20036;-66
2023/09/22 07:28:29;;;;;;;;;;;21.50;99.90;;;;;;4923310;28;20443;-66
2023/09/22 07:30:54;;;;;;;;;;;21.60;99.90;;;;;;4918303;28;19933;-66
2023/09/22 07:33:20;;;;;;;;;;;21.70;99.90;;;;;;4920696;28;20024;-67
2023/09/22 07:35:48;;;;;;;;;;;21.90;99.90;;;;;;4924518;28;19952;-67
2023/09/22 07:38:15;;;;;;;;;;;22.00;99.90;;;;;;4924736;28;20081;-67
2023/09/22 07:40:41;;;;;;;;;;;22.00;99.90;;;;;;4932301;28;19972;-67
2023/09/22 07:43:06;;;;;;;;;;;22.00;99.90;;;;;;4921917;28;20066;-67
2023/09/22 07:45:32;;;;;;;;;;;22.10;99.90;;;;;;4918829;28;21196;-69
2023/09/22 07:47:57;;;;;;;;;;;22.10;99.90;;;;;;4925399;28;19919;-67
2023/09/22 07:50:23;;;;;;;;;;;22.20;99.90;;;;;;4917658;28;20147;-66
2023/09/22 07:52:49;;;;;;;;;;;22.40;99.90;;;;;;4919950;28;20391;-66
2023/09/22 07:55:15;;;;;;;;;;;22.50;99.90;;;;;;4916444;28;19977;-66
2023/09/22 07:57:40;;;;;;;;;;;22.50;99.90;;;;;;4921960;28;19922;-67
2023/09/22 08:00:10;;;;;;;;;;;22.60;99.90;;;;;;4919960;28;20320;-66
2023/09/22 08:02:36;;;;;;;;;;;22.70;99.90;;;;;;4924534;28;19917;-67
2023/09/22 08:05:02;;;;;;;;;;;22.80;99.90;;;;;;4926847;28;19922;-66
2023/09/22 08:07:27;;;;;;;;;;;22.90;99.90;;;;;;4920355;28;20051;-67
2023/09/22 08:09:53;;;;;;;;;;;23.00;99.90;;;;;;4921555;28;19997;-67
2023/09/22 08:12:18;;;;;;;;;;;23.00;99.90;;;;;;4927784;28;19918;-66
2023/09/22 08:14:45;;;;;;;;;;;23.10;99.90;;;;;;4922504;28;20002;-67
2023/09/22 08:17:10;;;;;;;;;;;23.10;99.90;;;;;;4919206;28;20080;-69
2023/09/22 08:19:36;;;;;;;;;;;23.20;99.90;;;;;;4916184;28;19935;-68
2023/09/22 08:22:02;;;;;;;;;;;23.20;99.90;;;;;;4915869;28;19926;-67
2023/09/22 08:24:27;;;;;;;;;;;23.30;99.90;;;;;;4914951;28;19918;-67
2023/09/22 08:26:55;;;;;;;;;;;23.40;99.90;;;;;;4920401;28;20549;-67
2023/09/22 08:29:22;;;;;;;;;;;23.50;99.90;;;;;;4925108;28;19914;-67
2023/09/22 08:31:48;;;;;;;;;;;23.50;99.90;;;;;;4925672;28;19914;-67
2023/09/22 08:34:13;;;;;;;;;;;23.50;99.90;;;;;;4920011;28;19914;-68
2023/09/22 08:36:39;;;;;;;;;;;23.60;99.90;;;;;;4923300;28;19914;-67
2023/09/22 08:39:04;;;;;;;;;;;23.60;99.90;;;;;;4922480;28;20026;-67
2023/09/22 08:41:32;;;;;;;;;;;23.70;99.90;;;;;;4930739;28;19929;-67
2023/09/22 08:43:58;;;;;;;;;;;23.70;99.90;;;;;;4920496;28;20407;-67
2023/09/22 08:46:24;;;;;;;;;;;23.70;99.90;;;;;;4924791;28;19919;-67
2023/09/22 08:48:51;;;;;;;;;;;23.70;99.90;;;;;;4924025;28;19940;-66
2023/09/22 08:51:17;;;;;;;;;;;23.70;99.90;;;;;;4925726;28;19950;-66
2023/09/22 08:53:43;;;;;;;;;;;23.70;99.90;;;;;;4930198;28;19991;-66
2023/09/22 08:56:10;;;;;;;;;;;23.70;99.90;;;;;;4922676;28;20385;-66
2023/09/22 08:58:35;;;;;;;;;;;23.70;99.90;;;;;;4926383;28;20941;-66
2023/09/22 09:01:02;;;;;;;;;;;23.70;99.90;;;;;;4930391;28;19947;-66
2023/09/22 09:03:28;;;;;;;;;;;23.80;99.90;;;;;;4925722;28;19945;-66
2023/09/22 09:06:04;;;;;;;;;;;23.80;99.90;;;;;;4930057;28;19942;-68
2023/09/22 09:08:30;;;;;;;;;;;23.70;99.90;;;;;;4930177;28;20311;-68
2023/09/22 09:10:57;;;;;;;;;;;23.60;99.90;;;;;;4920988;28;19986;-67
2023/09/22 09:13:27;;;;;;;;;;;23.50;99.90;;;;;;4930650;28;20162;-68
2023/09/22 09:16:01;;;;;;;;;;;23.50;99.90;;;;;;4907076;28;19975;-68
2023/09/22 09:18:26;;;;;;;;;;;23.50;99.90;;;;;;4928306;28;19990;-68
2023/09/22 09:21:09;;;;;;;;;;;23.60;99.90;;;;;;4929756;28;20379;-69
2023/09/22 09:23:35;;;;;;;;;;;23.50;99.90;;;;;;4931781;28;20690;-66
2023/09/22 09:26:01;;;;;;;;;;;23.40;99.90;;;;;;4924621;28;20043;-66
2023/09/22 09:28:28;;;;;;;;;;;23.40;99.90;;;;;;4921354;28;20570;-66
2023/09/22 09:30:57;;;;;;;;;;;23.30;99.90;;;;;;4928506;28;19986;-66
2023/09/22 09:33:27;;;;;;;;;;;23.30;99.90;;;;;;4934253;28;21718;-66
2023/09/22 09:35:53;;;;;;;;;;;23.20;99.90;;;;;;4935946;28;20088;-65
2023/09/22 09:38:23;;;;;;;;;;;23.20;99.90;;;;;;4919691;28;20308;-66
2023/09/22 09:40:50;;;;;;;;;;;23.20;99.90;;;;;;4927759;28;20304;-65
2023/09/22 09:43:15;;;;;;;;;;;23.20;99.90;;;;;;4923519;28;20594;-65
2023/09/22 09:45:45;;;;;;;;;;;23.30;99.90;;;;;;4931734;28;20067;-66
2023/09/22 09:48:18;;;;;;;;;;;23.40;99.90;;;;;;4930978;28;19931;-66
2023/09/22 09:50:48;;;;;;;;;;;23.40;99.90;;;;;;4933619;28;19968;-66
2023/09/22 09:53:21;;;;;;;;;;;23.50;99.90;;;;;;4931507;28;19934;-66
2023/09/22 09:55:49;;;;;;;;;;;23.60;99.90;;;;;;4929089;28;20441;-66
2023/09/22 09:58:15;;;;;;;;;;;23.50;99.90;;;;;;4928660;28;19964;-66
2023/09/22 10:00:42;;;;;;;;;;;23.40;99.90;;;;;;4928509;28;20041;-66
2023/09/22 10:03:08;;;;;;;;;;;23.30;99.90;;;;;;4924344;28;19955;-66
2023/09/22 10:05:34;;;;;;;;;;;23.30;99.90;;;;;;4934627;28;19980;-65
2023/09/22 10:07:59;;;;;;;;;;;23.20;99.90;;;;;;4940624;28;20034;-65
2023/09/22 10:10:26;;;;;;;;;;;23.20;99.90;;;;;;4921382;28;19940;-65
2023/09/22 10:12:52;;;;;;;;;;;23.20;99.90;;;;;;4924294;28;19933;-66
2023/09/22 10:15:38;;;;;;;;;;;23.20;99.90;;;;;;4927110;28;20711;-66
2023/09/22 10:18:04;;;;;;;;;;;23.10;99.90;;;;;;4935843;28;20060;-67
2023/09/22 10:20:42;;;;;;;;;;;23.10;99.90;;;;;;4931048;28;19972;-67
2023/09/22 10:23:16;;;;;;;;;;;23.10;99.90;;;;;;4924341;28;19968;-68
2023/09/22 10:25:41;;;;;;;;;;;23.10;99.90;;;;;;4927680;28;19918;-68
2023/09/22 10:28:09;;;;;;;;;;;23.10;99.90;;;;;;4905056;28;19935;-68
2023/09/22 10:30:43;;;;;;;;;;;23.20;99.90;;;;;;4924619;28;19933;-68
2023/09/22 10:33:25;;;;;;;;;;;23.20;99.90;;;;;;4931289;28;19932;-67
2023/09/22 10:35:51;;;;;;;;;;;23.20;99.90;;;;;;4925245;28;21183;-68
2023/09/22 10:38:19;;;;;;;;;;;23.20;99.90;;;;;;4920581;28;19934;-68
2023/09/22 10:41:07;;;;;;;;;;;23.30;99.90;;;;;;4926390;28;20372;-68
2023/09/22 10:43:34;;;;;;;;;;;23.30;99.90;;;;;;4916649;28;20592;-68
2023/09/22 10:45:59;;;;;;;;;;;23.30;99.90;;;;;;4925089;28;20069;-68
2023/09/22 10:48:34;;;;;;;;;;;23.40;99.90;;;;;;4917303;28;20598;-68
2023/09/22 10:51:00;;;;;;;;;;;23.30;99.90;;;;;;4921434;28;19938;-68
2023/09/22 10:53:25;;;;;;;;;;;23.40;99.90;;;;;;4918734;28;20931;-68
2023/09/22 10:55:51;;;;;;;;;;;23.40;99.90;;;;;;4918229;28;19970;-68
2023/09/22 10:58:21;;;;;;;;;;;23.40;99.90;;;;;;4922060;28;19941;-69
2023/09/22 11:01:00;;;;;;;;;;;23.40;99.90;;;;;;4917399;28;19957;-68
2023/09/22 11:03:26;;;;;;;;;;;23.40;99.90;;;;;;4925987;28;19960;-68
2023/09/22 11:06:06;;;;;;;;;;;23.50;99.90;;;;;;4929531;28;19932;-69
2023/09/22 11:08:32;;;;;;;;;;;23.50;99.90;;;;;;4929565;28;19931;-68
2023/09/22 11:10:58;;;;;;;;;;;23.50;99.90;;;;;;4931396;28;19939;-68
2023/09/22 11:13:23;;;;;;;;;;;23.50;99.90;;;;;;4925811;28;19940;-68
2023/09/22 11:15:49;;;;;;;;;;;23.50;99.90;;;;;;4926855;28;20437;-67
2023/09/22 11:18:22;;;;;;;;;;;23.60;99.90;;;;;;4927720;28;19933;-68
2023/09/22 11:20:48;;;;;;;;;;;23.60;99.90;;;;;;4930133;28;19962;-68
2023/09/22 11:23:14;;;;;;;;;;;23.70;99.90;;;;;;4921651;28;19962;-68
2023/09/22 11:25:40;;;;;;;;;;;23.80;99.90;;;;;;4924566;28;20368;-68
2023/09/22 11:28:06;;;;;;;;;;;23.80;99.90;;;;;;4931608;28;20031;-67
2023/09/22 11:30:33;;;;;;;;;;;23.90;99.90;;;;;;4928339;28;20025;-68
2023/09/22 11:32:59;;;;;;;;;;;23.80;99.90;;;;;;4932355;28;20571;-67
2023/09/22 11:35:39;;;;;;;;;;;23.80;99.90;;;;;;4924335;28;20042;-66
2023/09/22 11:38:22;;;;;;;;;;;23.80;99.90;;;;;;4923673;28;19972;-65
2023/09/22 11:40:48;;;;;;;;;;;23.90;99.90;;;;;;4928091;28;20045;-67
2023/09/22 11:43:13;;;;;;;;;;;23.90;99.90;;;;;;4938991;28;19954;-67
2023/09/22 11:45:39;;;;;;;;;;;23.90;99.90;;;;;;4931417;28;20114;-67
2023/09/22 11:48:05;;;;;;;;;;;24.00;99.90;;;;;;4925854;28;19938;-67
2023/09/22 11:50:31;;;;;;;;;;;24.10;99.90;;;;;;4921535;28;20048;-67
2023/09/22 11:53:15;;;;;;;;;;;24.10;99.90;;;;;;4927857;28;19939;-67
2023/09/22 11:55:41;;;;;;;;;;;24.20;99.90;;;;;;4924878;28;19936;-67
2023/09/22 11:58:06;;;;;;;;;;;24.30;99.90;;;;;;4933954;28;20036;-67
2023/09/22 12:00:32;;;;;;;;;;;24.30;99.90;;;;;;4930076;28;19945;-67
2023/09/22 12:02:57;;;;;;;;;;;24.40;99.90;;;;;;4920031;28;19959;-66
2023/09/22 12:05:23;;;;;;;;;;;24.50;99.90;;;;;;4921435;28;19948;-66
2023/09/22 12:07:49;;;;;;;;;;;24.50;99.90;;;;;;4919164;28;20028;-66
2023/09/22 12:10:14;;;;;;;;;;;24.60;99.90;;;;;;4915514;28;19930;-69
2023/09/22 12:12:40;;;;;;;;;;;24.60;99.90;;;;;;4918919;28;19942;-69
2023/09/22 12:15:06;;;;;;;;;;;24.70;99.90;;;;;;4914387;28;20010;-67
2023/09/22 12:17:32;;;;;;;;;;;25.00;99.90;;;;;;4924968;28;19937;-68
2023/09/22 12:19:57;;;;;;;;;;;25.20;99.90;;;;;;4914270;28;19966;-68
2023/09/22 12:22:23;;;;;;;;;;;25.50;99.90;;;;;;4920639;28;19966;-68
2023/09/22 12:24:48;;;;;;;;;;;25.70;99.90;;;;;;4922574;28;20938;-68
2023/09/22 12:27:14;;;;;;;;;;;25.90;99.90;;;;;;4920866;28;20917;-65
2023/09/22 12:29:39;;;;;;;;;;;26.10;99.90;;;;;;4916493;28;19932;-65
2023/09/22 12:32:07;;;;;;;;;;;26.20;99.90;;;;;;4913409;28;20198;-65
2023/09/22 12:34:33;;;;;;;;;;;26.20;99.90;;;;;;4930286;28;19946;-65
2023/09/22 12:36:58;;;;;;;;;;;26.00;99.90;;;;;;4915991;28;20743;-66
2023/09/22 12:39:25;;;;;;;;;;;25.90;99.90;;;;;;4937257;28;20414;-66
2023/09/22 12:41:50;;;;;;;;;;;25.80;99.90;;;;;;4936894;28;19954;-66
2023/09/22 12:44:17;;;;;;;;;;;25.70;99.90;;;;;;4938667;28;19940;-66
2023/09/22 12:46:43;;;;;;;;;;;25.70;99.90;;;;;;4929914;28;19960;-68
2023/09/22 12:49:08;;;;;;;;;;;25.70;99.90;;;;;;4929403;28;19938;-67
2023/09/22 12:51:34;;;;;;;;;;;25.70;99.90;;;;;;4921789;28;20412;-68
2023/09/22 12:53:59;;;;;;;;;;;25.60;99.90;;;;;;4933008;28;20491;-68
2023/09/22 12:56:25;;;;;;;;;;;25.50;99.90;;;;;;4933719;28;19925;-68
2023/09/22 12:58:50;;;;;;;;;;;25.50;99.90;;;;;;4931208;28;20464;-67
2023/09/22 13:01:16;;;;;;;;;;;25.50;99.90;;;;;;4934270;28;20037;-68
2023/09/22 13:03:41;;;;;;;;;;;25.50;99.90;;;;;;4923736;28;19960;-68
2023/09/22 13:06:07;;;;;;;;;;;25.40;99.90;;;;;;4928562;28;19937;-67
2023/09/22 13:08:33;;;;;;;;;;;25.50;99.90;;;;;;4924993;28;20140;-68
2023/09/22 13:10:59;;;;;;;;;;;25.50;99.90;;;;;;4929770;28;20010;-67
2023/09/22 13:13:25;;;;;;;;;;;25.50;99.90;;;;;;4925000;28;20065;-68
2023/09/22 13:15:50;;;;;;;;;;;25.70;99.90;;;;;;4923314;28;19936;-67
2023/09/22 13:18:17;;;;;;;;;;;25.80;99.90;;;;;;4927681;28;19939;-68
2023/09/22 13:20:43;;;;;;;;;;;25.90;99.90;;;;;;4933195;28;20049;-68
2023/09/22 13:23:10;;;;;;;;;;;26.00;99.90;;;;;;4929729;28;20415;-68
2023/09/22 13:25:38;;;;;;;;;;;26.10;99.90;;;;;;4933353;28;19948;-68
2023/09/22 13:28:08;;;;;;;;;;;26.20;99.90;;;;;;4929263;28;19972;-68
2023/09/22 13:30:34;;;;;;;;;;;26.20;99.90;;;;;;4930336;28;19928;-68
2023/09/22 13:33:00;;;;;;;;;;;26.20;99.90;;;;;;4930641;28;19936;-68
2023/09/22 13:35:25;;;;;;;;;;;26.20;99.90;;;;;;4924220;28;21011;-68
2023/09/22 13:37:51;;;;;;;;;;;26.30;99.90;;;;;;4929561;28;20861;-68
2023/09/22 13:40:17;;;;;;;;;;;26.30;99.90;;;;;;4928678;28;19932;-66
2023/09/22 13:42:46;;;;;;;;;;;26.30;99.90;;;;;;4931469;28;19966;-66
2023/09/22 13:45:12;;;;;;;;;;;26.30;99.90;;;;;;4928683;28;19926;-66
2023/09/22 13:47:38;;;;;;;;;;;26.30;99.90;;;;;;4927267;28;20574;-66
2023/09/22 13:50:04;;;;;;;;;;;26.40;99.90;;;;;;4932066;28;19932;-66
2023/09/22 13:52:30;;;;;;;;;;;26.40;99.90;;;;;;4930564;28;20418;-66
2023/09/22 13:54:55;;;;;;;;;;;26.40;99.90;;;;;;4922406;28;19997;-66
2023/09/22 13:57:21;;;;;;;;;;;26.40;99.90;;;;;;4928652;28;19928;-66
2023/09/22 13:59:46;;;;;;;;;;;26.40;99.90;;;;;;4911364;28;20026;-66
2023/09/22 14:02:12;;;;;;;;;;;26.40;99.90;;;;;;4930862;28;20051;-66
2023/09/22 14:04:38;;;;;;;;;;;26.50;99.90;;;;;;4932697;28;19925;-66
2023/09/22 14:07:03;;;;;;;;;;;26.50;99.90;;;;;;4938914;28;20402;-66
2023/09/22 14:09:29;;;;;;;;;;;26.50;99.90;;;;;;4938564;28;19940;-66
2023/09/22 14:11:54;;;;;;;;;;;26.60;99.90;;;;;;4940305;28;19958;-66
2023/09/22 14:14:21;;;;;;;;;;;26.70;99.90;;;;;;4938994;28;20295;-67